createdAt,value
2019-06-26T00:00:45.523Z,409.84
2019-06-26T00:01:45.557Z,411.96
2019-06-26T00:02:45.505Z,413.98
2019-06-26T00:03:45.485Z,412.18
2019-06-26T00:04:45.504Z,414.54
2019-06-26T00:05:45.459Z,413.54
2019-06-26T00:06:45.476Z,414.83
2019-06-26T00:07:45.455Z,418.38
2019-06-26T00:08:45.425Z,415.13
2019-06-26T00:09:45.434Z,411.80
2019-06-26T00:10:45.395Z,413.35
2019-06-26T00:11:45.396Z,409.21
2019-06-26T00:12:45.406Z,409.63
2019-06-26T00:13:45.374Z,411.12
2019-06-26T00:14:45.366Z,410.31
2019-06-26T00:15:45.352Z,417.27
2019-06-26T00:16:45.328Z,410.03
2019-06-26T00:17:46.313Z,410.87
2019-06-26T00:18:45.311Z,413.42
2019-06-26T00:19:45.374Z,409.28
2019-06-26T00:20:45.293Z,408.64
2019-06-26T00:21:45.285Z,414.36
2019-06-26T00:22:45.288Z,407.33
2019-06-26T00:23:45.249Z,410.48
2019-06-26T00:24:45.257Z,411.31
2019-06-26T00:25:45.243Z,414.13
2019-06-26T00:26:45.230Z,410.98
2019-06-26T00:27:45.254Z,409.59
2019-06-26T00:28:45.199Z,424.58
2019-06-26T00:29:45.186Z,412.02
2019-06-26T00:30:45.183Z,408.65
2019-06-26T00:31:45.171Z,405.29
2019-06-26T00:32:45.164Z,412.63
2019-06-26T00:33:45.163Z,409.21
2019-06-26T00:34:45.157Z,417.85
2019-06-26T00:35:45.130Z,410.09
2019-06-26T00:36:45.112Z,407.76
2019-06-26T00:37:45.099Z,410.11
2019-06-26T00:38:45.103Z,417.69
2019-06-26T00:39:45.082Z,410.58
2019-06-26T00:40:45.070Z,408.51
2019-06-26T00:41:45.057Z,410.56
2019-06-26T00:42:45.178Z,408.80
2019-06-26T00:43:45.060Z,414.33
2019-06-26T00:44:45.093Z,410.55
2019-06-26T00:45:45.013Z,408.37
2019-06-26T00:46:45.016Z,410.10
2019-06-26T00:47:44.993Z,406.26
2019-06-26T00:48:44.981Z,410.64
2019-06-26T00:49:44.980Z,408.69
2019-06-26T00:50:44.967Z,406.08
2019-06-26T00:51:44.940Z,408.56
2019-06-26T00:52:44.935Z,410.61
2019-06-26T00:53:44.936Z,416.79
2019-06-26T00:54:44.934Z,414.52
2019-06-26T00:55:44.920Z,412.69
2019-06-26T00:56:44.893Z,405.94
2019-06-26T00:57:44.888Z,410.98
2019-06-26T00:58:44.874Z,414.20
2019-06-26T00:59:44.895Z,408.39
2019-06-26T01:00:44.847Z,408.38
2019-06-26T01:01:44.844Z,411.71
2019-06-26T01:02:44.856Z,413.00
2019-06-26T01:03:44.807Z,412.90
2019-06-26T01:04:44.802Z,409.21
2019-06-26T01:05:44.841Z,417.83
2019-06-26T01:06:44.793Z,410.38
2019-06-26T01:07:44.782Z,414.05
2019-06-26T01:08:44.747Z,409.21
2019-06-26T01:09:44.758Z,406.30
2019-06-26T01:10:44.738Z,411.61
2019-06-26T01:11:44.731Z,407.61
2019-06-26T01:12:44.713Z,407.27
2019-06-26T01:13:57.305Z,411.32
2019-06-26T01:14:45.690Z,408.70
2019-06-26T01:15:44.702Z,412.06
2019-06-26T01:16:44.667Z,409.05
2019-06-26T01:17:44.699Z,408.45
2019-06-26T01:18:44.668Z,409.21
2019-06-26T01:19:44.642Z,411.67
2019-06-26T01:20:44.626Z,411.26
2019-06-26T01:21:44.614Z,415.42
2019-06-26T01:22:44.608Z,412.20
2019-06-26T01:23:44.586Z,412.99
2019-06-26T01:24:44.589Z,418.99
2019-06-26T01:25:44.580Z,409.20
2019-06-26T01:26:44.597Z,415.34
2019-06-26T01:27:44.553Z,410.59
2019-06-26T01:28:44.556Z,412.09
2019-06-26T01:29:44.557Z,409.00
2019-06-26T01:30:44.530Z,409.23
2019-06-26T01:31:44.539Z,414.53
2019-06-26T01:32:44.507Z,411.27
2019-06-26T01:33:44.509Z,407.41
2019-06-26T01:34:44.486Z,408.81
2019-06-26T01:35:44.483Z,415.88
2019-06-26T01:36:44.474Z,410.16
2019-06-26T01:37:44.461Z,409.18
2019-06-26T01:38:44.447Z,418.60
2019-06-26T01:39:44.434Z,412.27
2019-06-26T01:40:44.482Z,410.83
2019-06-26T01:41:44.404Z,413.54
2019-06-26T01:42:44.427Z,410.34
2019-06-26T01:43:44.387Z,417.64
2019-06-26T01:44:44.381Z,408.09
2019-06-26T01:45:44.354Z,411.63
2019-06-26T01:46:44.358Z,410.76
2019-06-26T01:47:44.348Z,419.45
2019-06-26T01:48:44.369Z,414.49
2019-06-26T01:49:44.317Z,411.19
2019-06-26T01:50:44.337Z,405.05
2019-06-26T01:51:44.297Z,413.25
2019-06-26T01:52:44.278Z,420.27
2019-06-26T01:53:44.274Z,416.22
2019-06-26T01:54:44.272Z,420.82
2019-06-26T01:55:44.310Z,411.43
2019-06-26T01:56:44.246Z,411.31
2019-06-26T01:57:44.228Z,412.69
2019-06-26T01:58:44.234Z,414.17
2019-06-26T01:59:44.208Z,408.52
2019-06-26T02:00:44.204Z,415.12
2019-06-26T02:01:44.194Z,407.71
2019-06-26T02:02:44.177Z,406.01
2019-06-26T02:03:44.192Z,409.37
2019-06-26T02:04:44.159Z,409.25
2019-06-26T02:05:44.170Z,423.09
2019-06-26T02:06:44.146Z,406.96
2019-06-26T02:07:44.119Z,408.44
2019-06-26T02:08:44.115Z,414.29
2019-06-26T02:09:44.122Z,412.54
2019-06-26T02:10:44.105Z,415.38
2019-06-26T02:11:44.089Z,411.16
2019-06-26T02:12:44.060Z,412.68
2019-06-26T02:13:44.065Z,415.25
2019-06-26T02:14:44.052Z,406.83
2019-06-26T02:15:44.054Z,409.01
2019-06-26T02:16:44.022Z,407.43
2019-06-26T02:17:44.008Z,409.40
2019-06-26T02:18:44.082Z,424.05
2019-06-26T02:19:44.009Z,409.83
2019-06-26T02:20:44.015Z,419.02
2019-06-26T02:21:43.973Z,415.44
2019-06-26T02:22:43.967Z,420.73
2019-06-26T02:23:43.952Z,414.18
2019-06-26T02:24:43.954Z,409.04
2019-06-26T02:25:43.922Z,405.87
2019-06-26T02:26:43.932Z,412.71
2019-06-26T02:27:43.902Z,406.43
2019-06-26T02:28:43.916Z,413.53
2019-06-26T02:29:43.893Z,416.44
2019-06-26T02:30:43.879Z,417.52
2019-06-26T02:31:43.910Z,410.48
2019-06-26T02:32:43.858Z,406.70
2019-06-26T02:33:43.844Z,407.32
2019-06-26T02:34:43.844Z,414.47
2019-06-26T02:35:43.826Z,420.34
2019-06-26T02:36:43.814Z,416.37
2019-06-26T02:37:43.823Z,412.82
2019-06-26T02:38:43.799Z,408.00
2019-06-26T02:39:43.785Z,409.91
2019-06-26T02:40:43.774Z,409.79
2019-06-26T02:41:43.763Z,409.69
2019-06-26T02:42:43.751Z,409.17
2019-06-26T02:43:43.769Z,406.54
2019-06-26T02:44:53.260Z,409.77
2019-06-26T02:45:44.709Z,416.21
2019-06-26T02:46:43.705Z,411.00
2019-06-26T02:47:43.697Z,428.58
2019-06-26T02:48:43.705Z,412.39
2019-06-26T02:49:43.677Z,416.12
2019-06-26T02:50:43.655Z,411.19
2019-06-26T02:51:43.659Z,410.30
2019-06-26T02:52:43.645Z,415.70
2019-06-26T02:53:43.631Z,417.60
2019-06-26T02:54:43.648Z,406.22
2019-06-26T02:55:43.612Z,404.72
2019-06-26T02:56:43.586Z,417.67
2019-06-26T02:57:43.576Z,416.65
2019-06-26T02:58:43.581Z,414.73
2019-06-26T02:59:43.567Z,413.97
2019-06-26T03:00:43.571Z,414.34
2019-06-26T03:01:43.556Z,423.68
2019-06-26T03:02:43.537Z,427.48
2019-06-26T03:03:43.510Z,421.68
2019-06-26T03:04:43.518Z,413.70
2019-06-26T03:05:43.507Z,416.88
2019-06-26T03:06:43.514Z,410.61
2019-06-26T03:07:43.475Z,414.35
2019-06-26T03:08:43.467Z,411.14
2019-06-26T03:09:43.481Z,412.49
2019-06-26T03:10:43.435Z,413.31
2019-06-26T03:11:43.428Z,416.58
2019-06-26T03:12:43.453Z,424.00
2019-06-26T03:13:43.421Z,424.12
2019-06-26T03:14:43.402Z,423.63
2019-06-26T03:15:43.391Z,412.09
2019-06-26T03:16:43.374Z,406.33
2019-06-26T03:17:54.849Z,425.06
2019-06-26T03:18:44.372Z,415.06
2019-06-26T03:19:43.350Z,411.15
2019-06-26T03:20:43.336Z,411.20
2019-06-26T03:21:43.318Z,413.16
2019-06-26T03:22:43.329Z,407.77
2019-06-26T03:23:43.334Z,410.39
2019-06-26T03:24:43.295Z,413.37
2019-06-26T03:25:43.282Z,409.87
2019-06-26T03:26:43.279Z,407.81
2019-06-26T03:27:43.258Z,414.00
2019-06-26T03:28:43.252Z,409.36
2019-06-26T03:29:43.261Z,417.98
2019-06-26T03:30:43.216Z,413.20
2019-06-26T03:31:43.216Z,409.62
2019-06-26T03:32:43.202Z,411.59
2019-06-26T03:33:43.199Z,408.42
2019-06-26T03:34:43.200Z,408.37
2019-06-26T03:35:43.197Z,413.88
2019-06-26T03:36:43.165Z,414.87
2019-06-26T03:37:43.152Z,413.13
2019-06-26T03:38:43.143Z,413.94
2019-06-26T03:39:43.143Z,414.96
2019-06-26T03:40:43.131Z,408.70
2019-06-26T03:41:43.109Z,414.57
2019-06-26T03:42:43.115Z,418.08
2019-06-26T03:43:43.092Z,405.92
2019-06-26T03:44:43.084Z,420.98
2019-06-26T03:45:43.083Z,412.10
2019-06-26T03:46:43.083Z,410.82
2019-06-26T03:47:43.045Z,408.37
2019-06-26T03:48:43.024Z,412.63
2019-06-26T03:49:43.026Z,414.10
2019-06-26T03:50:43.002Z,405.27
2019-06-26T03:51:43.002Z,409.87
2019-06-26T03:52:43.009Z,408.94
2019-06-26T03:53:42.979Z,411.07
2019-06-26T03:54:42.966Z,405.36
2019-06-26T03:55:42.953Z,418.12
2019-06-26T03:56:42.946Z,417.45
2019-06-26T03:57:42.946Z,406.49
2019-06-26T03:58:42.965Z,407.85
2019-06-26T03:59:42.911Z,411.23
2019-06-26T04:00:43.025Z,410.88
2019-06-26T04:01:42.894Z,419.95
2019-06-26T04:02:42.874Z,420.31
2019-06-26T04:03:42.875Z,404.53
2019-06-26T04:04:42.897Z,406.78
2019-06-26T04:05:42.852Z,409.74
2019-06-26T04:06:42.840Z,408.09
2019-06-26T04:07:42.826Z,406.17
2019-06-26T04:08:42.824Z,408.39
2019-06-26T04:09:42.807Z,409.96
2019-06-26T04:10:43.540Z,410.95
2019-06-26T04:11:42.790Z,415.72
2019-06-26T04:12:42.777Z,417.38
2019-06-26T04:13:42.775Z,408.94
2019-06-26T04:14:42.749Z,415.38
2019-06-26T04:15:43.116Z,413.88
2019-06-26T04:16:42.727Z,406.58
2019-06-26T04:17:42.722Z,405.96
2019-06-26T04:18:42.708Z,411.88
2019-06-26T04:19:42.694Z,407.64
2019-06-26T04:20:42.673Z,406.40
2019-06-26T04:21:42.708Z,414.58
2019-06-26T04:22:42.678Z,407.05
2019-06-26T04:23:42.661Z,414.44
2019-06-26T04:24:42.652Z,407.55
2019-06-26T04:25:42.686Z,409.97
2019-06-26T04:26:42.617Z,411.96
2019-06-26T04:27:42.662Z,412.49
2019-06-26T04:28:42.890Z,405.06
2019-06-26T04:29:42.596Z,407.52
2019-06-26T04:30:42.589Z,405.44
2019-06-26T04:31:42.565Z,411.66
2019-06-26T04:32:42.575Z,410.11
2019-06-26T04:33:42.540Z,414.60
2019-06-26T04:34:42.527Z,409.59
2019-06-26T04:35:42.516Z,406.50
2019-06-26T04:36:42.505Z,410.84
2019-06-26T04:37:42.490Z,404.68
2019-06-26T04:38:43.064Z,410.78
2019-06-26T04:39:42.472Z,408.90
2019-06-26T04:40:42.461Z,407.63
2019-06-26T04:41:42.440Z,409.08
2019-06-26T04:42:42.444Z,410.38
2019-06-26T04:43:42.440Z,407.62
2019-06-26T04:44:42.434Z,409.19
2019-06-26T04:45:57.100Z,409.83
2019-06-26T04:46:43.396Z,407.89
2019-06-26T04:47:42.374Z,407.85
2019-06-26T04:48:42.402Z,407.54
2019-06-26T04:49:42.389Z,414.33
2019-06-26T04:50:42.349Z,409.70
2019-06-26T04:51:42.351Z,409.24
2019-06-26T04:52:42.357Z,404.59
2019-06-26T04:53:42.320Z,405.28
2019-06-26T04:54:42.306Z,430.99
2019-06-26T04:55:42.329Z,405.90
2019-06-26T04:56:42.295Z,417.75
2019-06-26T04:57:42.283Z,406.66
2019-06-26T04:58:42.316Z,411.62
2019-06-26T04:59:42.257Z,409.37
2019-06-26T05:00:42.253Z,408.33
2019-06-26T05:01:42.328Z,411.35
2019-06-26T05:02:42.227Z,416.57
2019-06-26T05:03:42.212Z,410.34
2019-06-26T05:04:42.217Z,406.50
2019-06-26T05:05:44.427Z,409.94
2019-06-26T05:06:42.165Z,407.59
2019-06-26T05:07:42.177Z,406.62
2019-06-26T05:08:42.151Z,401.82
2019-06-26T05:09:42.148Z,403.52
2019-06-26T05:10:42.124Z,413.52
2019-06-26T05:11:42.119Z,407.07
2019-06-26T05:12:42.135Z,406.25
2019-06-26T05:13:42.098Z,405.91
2019-06-26T05:14:42.087Z,411.35
2019-06-26T05:15:42.093Z,410.23
2019-06-26T05:16:42.137Z,406.82
2019-06-26T05:17:42.060Z,410.68
2019-06-26T05:18:42.135Z,406.52
2019-06-26T05:19:42.039Z,406.76
2019-06-26T05:20:42.033Z,407.38
2019-06-26T05:21:42.020Z,410.44
2019-06-26T05:22:42.000Z,404.85
2019-06-26T05:23:41.994Z,410.85
2019-06-26T05:24:42.035Z,418.07
2019-06-26T05:25:41.960Z,409.53
2019-06-26T05:26:41.942Z,411.85
2019-06-26T05:27:41.935Z,406.63
2019-06-26T05:28:41.934Z,415.91
2019-06-26T05:29:41.944Z,409.47
2019-06-26T05:30:41.953Z,411.22
2019-06-26T05:31:41.966Z,413.99
2019-06-26T05:32:41.896Z,411.48
2019-06-26T05:33:41.873Z,407.74
2019-06-26T05:34:41.870Z,404.85
2019-06-26T05:35:41.884Z,409.11
2019-06-26T05:36:41.846Z,404.76
2019-06-26T05:37:41.833Z,409.48
2019-06-26T05:38:41.888Z,406.88
2019-06-26T05:39:41.818Z,406.07
2019-06-26T05:40:41.813Z,418.19
2019-06-26T05:41:41.820Z,405.93
2019-06-26T05:42:41.785Z,403.16
2019-06-26T05:43:41.776Z,406.32
2019-06-26T05:44:41.760Z,411.41
2019-06-26T05:45:41.747Z,406.17
2019-06-26T05:46:41.757Z,407.20
2019-06-26T05:47:41.714Z,406.71
2019-06-26T05:48:41.719Z,405.57
2019-06-26T05:49:41.704Z,414.65
2019-06-26T05:50:41.709Z,407.63
2019-06-26T05:51:41.688Z,415.87
2019-06-26T05:52:43.000Z,406.08
2019-06-26T05:53:41.661Z,412.09
2019-06-26T05:54:41.660Z,407.97
2019-06-26T05:55:41.642Z,409.65
2019-06-26T05:56:45.097Z,403.99
2019-06-26T05:57:42.227Z,407.17
2019-06-26T05:58:41.631Z,403.71
2019-06-26T05:59:41.600Z,403.97
2019-06-26T06:00:41.587Z,410.64
2019-06-26T06:01:41.581Z,404.13
2019-06-26T06:02:41.571Z,406.43
2019-06-26T06:03:41.565Z,407.02
2019-06-26T06:04:41.565Z,404.62
2019-06-26T06:05:41.536Z,400.99
2019-06-26T06:06:42.419Z,402.65
2019-06-26T06:07:41.517Z,403.96
2019-06-26T06:08:41.528Z,403.98
2019-06-26T06:09:41.499Z,403.16
2019-06-26T06:10:41.488Z,405.30
2019-06-26T06:11:41.505Z,401.20
2019-06-26T06:12:41.473Z,411.07
2019-06-26T06:13:41.465Z,407.49
2019-06-26T06:14:41.473Z,393.81
2019-06-26T06:15:41.451Z,401.89
2019-06-26T06:16:47.377Z,398.19
2019-06-26T06:17:42.412Z,405.26
2019-06-26T06:18:41.444Z,406.29
2019-06-26T06:19:41.402Z,405.03
2019-06-26T06:20:41.419Z,396.00
2019-06-26T06:21:41.423Z,411.91
2019-06-26T06:22:41.410Z,401.45
2019-06-26T06:23:41.354Z,406.08
2019-06-26T06:24:41.356Z,402.91
2019-06-26T06:25:41.343Z,402.06
2019-06-26T06:26:41.358Z,403.34
2019-06-26T06:27:41.316Z,393.13
2019-06-26T06:28:41.328Z,394.90
2019-06-26T06:29:41.310Z,403.96
2019-06-26T06:30:41.309Z,399.92
2019-06-26T06:31:41.324Z,399.62
2019-06-26T06:32:41.287Z,398.99
2019-06-26T06:33:41.267Z,403.35
2019-06-26T06:34:41.249Z,396.51
2019-06-26T06:35:41.245Z,402.58
2019-06-26T06:36:41.221Z,386.36
2019-06-26T06:37:41.283Z,393.19
2019-06-26T06:38:41.220Z,401.18
2019-06-26T06:39:41.203Z,401.56
2019-06-26T06:40:41.211Z,399.45
2019-06-26T06:41:43.343Z,401.11
2019-06-26T06:42:41.174Z,388.80
2019-06-26T06:43:41.195Z,402.39
2019-06-26T06:44:41.161Z,397.65
2019-06-26T06:45:41.147Z,390.65
2019-06-26T06:46:41.198Z,396.02
2019-06-26T06:47:41.127Z,402.80
2019-06-26T06:48:41.130Z,391.80
2019-06-26T06:49:41.103Z,405.43
2019-06-26T06:50:41.107Z,396.30
2019-06-26T06:51:41.080Z,389.75
2019-06-26T06:52:41.099Z,393.98
2019-06-26T06:53:41.147Z,387.88
2019-06-26T06:54:41.094Z,394.28
2019-06-26T06:55:41.048Z,372.93
2019-06-26T06:56:41.041Z,395.01
2019-06-26T06:57:41.030Z,399.71
2019-06-26T06:58:41.017Z,392.94
2019-06-26T06:59:41.015Z,394.50
2019-06-26T07:00:41.034Z,391.39
2019-06-26T07:01:40.994Z,391.38
2019-06-26T07:02:40.982Z,393.32
2019-06-26T07:03:40.986Z,389.40
2019-06-26T07:04:40.964Z,383.91
2019-06-26T07:05:40.973Z,391.64
2019-06-26T07:06:40.949Z,386.71
2019-06-26T07:07:40.933Z,392.53
2019-06-26T07:08:40.930Z,400.84
2019-06-26T07:09:40.921Z,395.35
2019-06-26T07:10:40.936Z,391.27
2019-06-26T07:11:40.905Z,402.43
2019-06-26T07:12:40.944Z,393.23
2019-06-26T07:13:40.884Z,386.84
2019-06-26T07:14:40.882Z,393.07
2019-06-26T07:15:40.870Z,398.79
2019-06-26T07:16:40.891Z,399.76
2019-06-26T07:17:40.861Z,387.57
2019-06-26T07:18:40.859Z,393.83
2019-06-26T07:19:40.830Z,385.89
2019-06-26T07:20:44.340Z,387.60
2019-06-26T07:21:40.823Z,401.30
2019-06-26T07:22:40.838Z,388.83
2019-06-26T07:23:40.811Z,382.69
2019-06-26T07:24:40.785Z,385.46
2019-06-26T07:25:40.778Z,401.38
2019-06-26T07:26:40.800Z,387.45
2019-06-26T07:27:40.774Z,393.69
2019-06-26T07:28:40.780Z,390.21
2019-06-26T07:29:40.739Z,390.54
2019-06-26T07:30:40.743Z,396.75
2019-06-26T07:31:40.738Z,371.08
2019-06-26T07:32:40.728Z,395.89
2019-06-26T07:33:40.725Z,391.18
2019-06-26T07:34:40.706Z,393.66
2019-06-26T07:35:40.684Z,403.36
2019-06-26T07:36:40.707Z,393.83
2019-06-26T07:37:40.679Z,392.83
2019-06-26T07:38:40.669Z,377.71
2019-06-26T07:39:40.686Z,383.38
2019-06-26T07:40:40.643Z,403.57
2019-06-26T07:41:40.649Z,377.52
2019-06-26T07:42:40.662Z,368.52
2019-06-26T07:43:40.642Z,396.03
2019-06-26T07:44:40.618Z,384.13
2019-06-26T07:45:40.622Z,404.67
2019-06-26T07:46:40.602Z,383.51
2019-06-26T07:47:43.456Z,397.44
2019-06-26T07:48:40.591Z,385.55
2019-06-26T07:49:40.579Z,385.35
2019-06-26T07:50:40.598Z,403.21
2019-06-26T07:51:40.686Z,388.59
2019-06-26T07:52:40.571Z,378.97
2019-06-26T07:53:40.545Z,406.93
2019-06-26T07:54:40.538Z,393.60
2019-06-26T07:55:40.720Z,389.17
2019-06-26T07:56:40.571Z,372.09
2019-06-26T07:57:40.522Z,383.65
2019-06-26T07:58:40.516Z,383.92
2019-06-26T07:59:40.513Z,383.38
2019-06-26T08:00:40.497Z,374.08
2019-06-26T08:01:40.480Z,390.37
2019-06-26T08:02:40.481Z,376.01
2019-06-26T08:03:40.468Z,384.94
2019-06-26T08:04:40.467Z,390.45
2019-06-26T08:05:42.851Z,399.16
2019-06-26T08:06:40.594Z,390.71
2019-06-26T08:07:40.442Z,376.29
2019-06-26T08:08:40.423Z,383.46
2019-06-26T08:09:40.437Z,380.48
2019-06-26T08:10:40.417Z,390.82
2019-06-26T08:11:40.406Z,388.59
2019-06-26T08:12:40.433Z,403.44
2019-06-26T08:13:40.398Z,366.95
2019-06-26T08:14:40.374Z,394.21
2019-06-26T08:15:40.381Z,383.50
2019-06-26T08:16:40.376Z,379.14
2019-06-26T08:17:40.362Z,393.13
2019-06-26T08:18:40.390Z,376.68
2019-06-26T08:19:40.356Z,396.62
2019-06-26T08:20:51.857Z,379.11
2019-06-26T08:21:41.338Z,386.04
2019-06-26T08:22:40.315Z,382.12
2019-06-26T08:23:40.300Z,384.15
2019-06-26T08:24:40.325Z,391.97
2019-06-26T08:25:40.291Z,375.54
2019-06-26T08:26:40.282Z,384.65
2019-06-26T08:27:40.270Z,375.60
2019-06-26T08:28:40.270Z,387.25
2019-06-26T08:29:40.259Z,373.57
2019-06-26T08:30:40.271Z,389.94
2019-06-26T08:31:40.274Z,393.96
2019-06-26T08:32:40.270Z,380.71
2019-06-26T08:33:40.236Z,381.88
2019-06-26T08:34:40.228Z,386.20
2019-06-26T08:35:40.204Z,385.70
2019-06-26T08:36:40.221Z,367.24
2019-06-26T08:37:40.209Z,386.17
2019-06-26T08:38:40.212Z,388.60
2019-06-26T08:39:40.191Z,372.67
2019-06-26T08:40:40.179Z,363.13
2019-06-26T08:41:40.188Z,381.18
2019-06-26T08:42:40.194Z,379.24
2019-06-26T08:43:40.158Z,383.95
2019-06-26T08:44:40.142Z,375.50
2019-06-26T08:45:40.153Z,385.13
2019-06-26T08:46:40.255Z,383.95
2019-06-26T08:47:40.187Z,392.32
2019-06-26T08:48:40.870Z,365.84
2019-06-26T08:49:40.157Z,391.13
2019-06-26T08:50:40.205Z,403.84
2019-06-26T08:51:40.143Z,393.19
2019-06-26T08:52:40.091Z,382.42
2019-06-26T08:53:40.168Z,386.27
2019-06-26T08:54:40.089Z,381.23
2019-06-26T08:55:40.166Z,396.70
2019-06-26T08:56:40.167Z,400.70
2019-06-26T08:57:40.147Z,389.26
2019-06-26T08:58:40.263Z,390.82
2019-06-26T08:59:40.111Z,382.10
2019-06-26T09:00:40.151Z,383.28
2019-06-26T09:01:40.093Z,388.92
2019-06-26T09:02:40.090Z,360.71
2019-06-26T09:03:42.134Z,372.65
2019-06-26T09:04:40.062Z,372.54
2019-06-26T09:05:48.051Z,380.59
2019-06-26T09:06:41.425Z,381.34
2019-06-26T09:07:40.111Z,392.57
2019-06-26T09:08:40.117Z,380.09
2019-06-26T09:09:40.067Z,373.73
2019-06-26T09:10:40.065Z,384.85
2019-06-26T09:11:40.072Z,379.99
2019-06-26T09:12:40.335Z,389.12
2019-06-26T09:13:39.991Z,372.72
2019-06-26T09:14:39.933Z,388.46
2019-06-26T09:15:39.975Z,375.45
2019-06-26T09:16:39.916Z,384.32
2019-06-26T09:17:39.897Z,393.16
2019-06-26T09:18:39.896Z,393.65
2019-06-26T09:19:39.870Z,390.76
2019-06-26T09:20:39.880Z,378.95
2019-06-26T09:21:39.887Z,382.01
2019-06-26T09:22:39.841Z,412.72
2019-06-26T09:23:39.867Z,371.77
2019-06-26T09:24:39.828Z,390.81
2019-06-26T09:25:39.825Z,393.29
2019-06-26T09:26:39.810Z,392.86
2019-06-26T09:27:39.836Z,396.71
2019-06-26T09:28:39.810Z,393.54
2019-06-26T09:29:39.786Z,370.56
2019-06-26T09:30:39.777Z,382.58
2019-06-26T09:31:39.779Z,374.28
2019-06-26T09:32:39.797Z,387.79
2019-06-26T09:33:39.760Z,389.71
2019-06-26T09:34:39.752Z,387.70
2019-06-26T09:35:39.766Z,376.89
2019-06-26T09:36:39.732Z,385.39
2019-06-26T09:37:39.724Z,389.82
2019-06-26T09:38:39.847Z,385.87
2019-06-26T09:39:39.712Z,403.61
2019-06-26T09:40:39.712Z,382.80
2019-06-26T09:41:39.692Z,392.54
2019-06-26T09:42:39.683Z,386.67
2019-06-26T09:43:39.697Z,369.08
2019-06-26T09:44:39.736Z,380.12
2019-06-26T09:45:39.731Z,398.98
2019-06-26T09:46:39.662Z,384.29
2019-06-26T09:47:39.637Z,391.93
2019-06-26T09:48:52.217Z,398.97
2019-06-26T09:49:40.634Z,394.93
2019-06-26T09:50:39.604Z,381.30
2019-06-26T09:51:39.591Z,397.72
2019-06-26T09:52:39.589Z,388.45
2019-06-26T09:53:47.221Z,395.86
2019-06-26T09:54:40.583Z,382.16
2019-06-26T09:55:39.580Z,405.93
2019-06-26T09:56:39.573Z,393.60
2019-06-26T09:57:39.534Z,386.92
2019-06-26T09:58:39.545Z,392.75
2019-06-26T09:59:39.527Z,394.65
2019-06-26T10:00:39.508Z,396.65
2019-06-26T10:01:39.525Z,382.80
2019-06-26T10:02:39.725Z,406.35
2019-06-26T10:03:39.476Z,390.81
2019-06-26T10:04:39.474Z,387.71
2019-06-26T10:05:39.478Z,403.71
2019-06-26T10:06:39.478Z,392.37
2019-06-26T10:07:39.454Z,409.70
2019-06-26T10:08:39.433Z,402.80
2019-06-26T10:09:39.423Z,390.50
2019-06-26T10:10:39.449Z,408.17
2019-06-26T10:11:39.406Z,385.04
2019-06-26T10:12:39.400Z,401.00
2019-06-26T10:13:39.392Z,393.92
2019-06-26T10:14:47.292Z,401.48
2019-06-26T10:15:40.436Z,399.27
2019-06-26T10:16:39.373Z,405.12
2019-06-26T10:17:39.360Z,420.35
2019-06-26T10:18:39.356Z,395.21
2019-06-26T10:19:39.334Z,407.02
2019-06-26T10:20:39.339Z,408.38
2019-06-26T10:21:39.342Z,404.27
2019-06-26T10:22:39.299Z,406.71
2019-06-26T10:23:39.296Z,393.41
2019-06-26T10:24:39.323Z,404.05
2019-06-26T10:25:39.279Z,379.61
2019-06-26T10:26:39.293Z,383.79
2019-06-26T10:27:39.261Z,401.99
2019-06-26T10:28:39.264Z,408.67
2019-06-26T10:29:39.285Z,410.85
2019-06-26T10:30:39.241Z,407.05
2019-06-26T10:31:39.255Z,401.81
2019-06-26T10:32:39.233Z,410.20
2019-06-26T10:33:39.197Z,417.60
2019-06-26T10:34:39.248Z,400.06
2019-06-26T10:35:39.187Z,421.94
2019-06-26T10:36:39.212Z,402.84
2019-06-26T10:37:39.181Z,388.20
2019-06-26T10:38:39.179Z,405.83
2019-06-26T10:39:39.141Z,398.80
2019-06-26T10:40:39.151Z,408.76
2019-06-26T10:41:39.135Z,407.06
2019-06-26T10:42:39.107Z,406.63
2019-06-26T10:43:39.109Z,405.38
2019-06-26T10:44:39.141Z,401.48
2019-06-26T10:45:39.093Z,395.51
2019-06-26T10:46:39.078Z,401.18
2019-06-26T10:47:40.009Z,401.20
2019-06-26T10:48:39.067Z,405.46
2019-06-26T10:49:39.055Z,402.71
2019-06-26T10:50:49.835Z,393.56
2019-06-26T10:51:40.035Z,407.93
2019-06-26T10:52:39.022Z,407.38
2019-06-26T10:53:39.013Z,407.83
2019-06-26T10:54:38.993Z,419.81
2019-06-26T10:55:38.985Z,401.20
2019-06-26T10:56:38.985Z,402.43
2019-06-26T10:57:38.982Z,411.04
2019-06-26T10:58:38.986Z,420.24
2019-06-26T10:59:38.954Z,397.12
2019-06-26T11:00:38.941Z,397.75
2019-06-26T11:01:38.946Z,394.87
2019-06-26T11:02:38.936Z,415.32
2019-06-26T11:03:38.916Z,405.53
2019-06-26T11:04:38.915Z,417.94
2019-06-26T11:05:38.899Z,408.11
2019-06-26T11:06:38.925Z,398.48
2019-06-26T11:07:38.889Z,402.60
2019-06-26T11:08:38.875Z,406.67
2019-06-26T11:09:38.858Z,403.08
2019-06-26T11:10:38.852Z,405.54
2019-06-26T11:11:38.834Z,394.60
2019-06-26T11:12:38.833Z,411.35
2019-06-26T11:13:38.806Z,412.28
2019-06-26T11:14:38.823Z,410.93
2019-06-26T11:15:38.794Z,408.73
2019-06-26T11:16:38.793Z,413.86
2019-06-26T11:17:38.830Z,410.30
2019-06-26T11:18:38.771Z,409.97
2019-06-26T11:19:43.886Z,415.81
2019-06-26T11:20:39.752Z,403.13
2019-06-26T11:21:38.737Z,398.64
2019-06-26T11:22:38.738Z,398.43
2019-06-26T11:23:38.748Z,396.66
2019-06-26T11:24:38.722Z,402.34
2019-06-26T11:25:38.688Z,402.38
2019-06-26T11:26:38.680Z,404.20
2019-06-26T11:27:38.674Z,411.75
2019-06-26T11:28:38.712Z,398.92
2019-06-26T11:29:38.673Z,409.11
2019-06-26T11:30:38.665Z,414.86
2019-06-26T11:31:38.638Z,403.08
2019-06-26T11:32:38.637Z,400.01
2019-06-26T11:33:38.622Z,406.78
2019-06-26T11:34:38.637Z,401.79
2019-06-26T11:35:38.636Z,411.26
2019-06-26T11:36:38.584Z,408.68
2019-06-26T11:37:38.579Z,410.20
2019-06-26T11:38:38.643Z,402.97
2019-06-26T11:39:38.562Z,407.16
2019-06-26T11:40:38.561Z,411.30
2019-06-26T11:41:38.541Z,408.96
2019-06-26T11:42:38.535Z,409.16
2019-06-26T11:43:38.521Z,409.63
2019-06-26T11:44:38.536Z,409.72
2019-06-26T11:45:38.489Z,416.54
2019-06-26T11:46:38.509Z,406.57
2019-06-26T11:47:38.482Z,413.15
2019-06-26T11:48:38.467Z,408.27
2019-06-26T11:49:38.459Z,411.47
2019-06-26T11:50:38.450Z,410.09
2019-06-26T11:51:38.431Z,408.50
2019-06-26T11:52:38.462Z,420.90
2019-06-26T11:53:38.425Z,394.13
2019-06-26T11:54:38.404Z,420.58
2019-06-26T11:55:38.400Z,409.83
2019-06-26T11:56:38.385Z,404.10
2019-06-26T11:57:38.366Z,420.98
2019-06-26T11:58:38.370Z,411.81
2019-06-26T11:59:38.358Z,406.95
2019-06-26T12:00:41.462Z,398.38
2019-06-26T12:01:38.340Z,412.48
2019-06-26T12:02:38.328Z,410.21
2019-06-26T12:03:38.328Z,419.82
2019-06-26T12:04:38.295Z,410.06
2019-06-26T12:05:38.292Z,409.67
2019-06-26T12:06:38.285Z,415.35
2019-06-26T12:07:38.285Z,404.90
2019-06-26T12:08:38.262Z,412.05
2019-06-26T12:09:38.303Z,413.53
2019-06-26T12:10:38.256Z,407.86
2019-06-26T12:11:38.244Z,406.66
2019-06-26T12:12:38.239Z,404.93
2019-06-26T12:13:38.220Z,410.97
2019-06-26T12:14:38.213Z,398.61
2019-06-26T12:15:38.208Z,404.92
2019-06-26T12:16:38.196Z,403.49
2019-06-26T12:17:38.234Z,413.63
2019-06-26T12:18:38.166Z,403.71
2019-06-26T12:19:38.155Z,415.62
2019-06-26T12:20:38.195Z,409.51
2019-06-26T12:21:38.145Z,417.37
2019-06-26T12:22:38.133Z,411.64
2019-06-26T12:23:38.113Z,411.54
2019-06-26T12:24:38.112Z,417.19
2019-06-26T12:25:38.105Z,411.11
2019-06-26T12:26:38.109Z,416.20
2019-06-26T12:27:38.085Z,412.22
2019-06-26T12:28:38.067Z,405.36